Time;durP1;ratioP1;P1;durP2;ratioP2;P2;SDS_P1;SDS_P2;PMS_P1;PMS_P2;Temp;Humidity;BMP_temperature;BMP_pressure;BME280_temperature;BME280_humidity;BME280_pressure;Samples;Min_cycle;Max_cycle;Signal;HPM_P1;HPM_P2
2024/02/20 00:00:42;;;;;;;8.07;5.03;;;;;;;;;;10329313;28;20037;-60
2024/02/20 00:05:43;;;;;;;9.20;5.30;;;;;;;;;;10328938;28;20042;-60
2024/02/20 00:10:44;;;;;;;7.40;5.80;;;;;;;;;;10329107;28;20434;-60
2024/02/20 00:15:45;;;;;;;9.23;5.03;;;;;;;;;;10328602;28;20410;-59
2024/02/20 00:20:46;;;;;;;7.90;5.72;;;;;;;;;;10328277;28;20028;-59
2024/02/20 00:25:50;;;;;;;8.88;5.40;;;;;;;;;;10328545;28;20038;-59
2024/02/20 00:30:50;;;;;;;8.90;5.95;;;;;;;;;;10328515;28;20088;-59
2024/02/20 00:35:51;;;;;;;8.45;5.85;;;;;;;;;;10328068;28;20038;-59
2024/02/20 00:40:52;;;;;;;7.35;5.40;;;;;;;;;;10327958;28;20033;-59
2024/02/20 00:45:54;;;;;;;7.72;5.82;;;;;;;;;;10328151;28;20031;-59
2024/02/20 00:50:54;;;;;;;8.25;5.72;;;;;;;;;;10328381;28;20027;-59
2024/02/20 00:55:55;;;;;;;9.45;5.82;;;;;;;;;;10327425;28;20030;-59
2024/02/20 01:00:56;;;;;;;8.05;5.72;;;;;;;;;;10327430;28;20027;-60
2024/02/20 01:05:56;;;;;;;7.88;5.85;;;;;;;;;;10326885;28;20437;-59
2024/02/20 01:10:57;;;;;;;8.85;5.88;;;;;;;;;;10327405;28;20031;-59
2024/02/20 01:15:58;;;;;;;9.25;6.00;;;;;;;;;;10326761;28;20027;-60
2024/02/20 01:20:58;;;;;;;10.38;5.55;;;;;;;;;;10327086;28;20026;-59
2024/02/20 01:25:59;;;;;;;7.93;5.53;;;;;;;;;;10326641;28;20080;-59
2024/02/20 01:31:00;;;;;;;8.63;5.53;;;;;;;;;;10326374;28;20033;-59
2024/02/20 01:36:00;;;;;;;6.63;5.22;;;;;;;;;;10326282;28;20034;-59
2024/02/20 01:41:01;;;;;;;10.05;5.35;;;;;;;;;;10326634;28;20026;-60
2024/02/20 01:46:02;;;;;;;8.90;6.03;;;;;;;;;;10326669;28;20045;-59
2024/02/20 01:51:04;;;;;;;6.55;4.75;;;;;;;;;;10325309;28;20039;-59
2024/02/20 01:56:06;;;;;;;7.60;5.80;;;;;;;;;;10326189;28;20034;-59
2024/02/20 02:01:07;;;;;;;6.93;5.53;;;;;;;;;;10326106;28;20027;-60
2024/02/20 02:06:08;;;;;;;15.35;5.53;;;;;;;;;;10326251;28;20058;-59
2024/02/20 02:11:08;;;;;;;8.00;5.10;;;;;;;;;;10334141;28;20022;-59
2024/02/20 02:16:09;;;;;;;9.32;5.50;;;;;;;;;;10333820;28;20285;-61
2024/02/20 02:21:09;;;;;;;12.38;5.78;;;;;;;;;;10333105;28;20084;-59
2024/02/20 02:26:13;;;;;;;7.80;5.57;;;;;;;;;;10333731;28;20038;-60
2024/02/20 02:31:16;;;;;;;6.80;5.53;;;;;;;;;;10332904;28;20393;-59
2024/02/20 02:36:16;;;;;;;6.70;5.43;;;;;;;;;;10332486;28;20025;-59
2024/02/20 02:41:18;;;;;;;7.15;5.53;;;;;;;;;;10332642;28;20041;-59
2024/02/20 02:46:19;;;;;;;7.65;5.53;;;;;;;;;;10331254;28;20035;-59
2024/02/20 02:51:19;;;;;;;7.47;5.57;;;;;;;;;;10332534;28;20018;-59
2024/02/20 02:56:22;;;;;;;6.22;5.40;;;;;;;;;;10332496;28;20022;-59
2024/02/20 03:01:23;;;;;;;7.82;5.10;;;;;;;;;;10332096;28;20026;-60
2024/02/20 03:06:23;;;;;;;8.63;5.88;;;;;;;;;;10331942;28;20079;-59
2024/02/20 03:11:24;;;;;;;7.85;5.65;;;;;;;;;;10331319;28;20035;-59
2024/02/20 03:16:24;;;;;;;8.48;6.00;;;;;;;;;;10331230;28;20029;-59
2024/02/20 03:21:25;;;;;;;6.60;5.65;;;;;;;;;;10330233;28;20026;-60
2024/02/20 03:26:28;;;;;;;7.63;5.45;;;;;;;;;;10330827;28;20034;-60
2024/02/20 03:31:29;;;;;;;5.43;4.90;;;;;;;;;;10330720;28;20462;-59
2024/02/20 03:36:30;;;;;;;7.00;5.28;;;;;;;;;;10330305;28;20034;-60
2024/02/20 03:41:31;;;;;;;6.63;5.18;;;;;;;;;;10331042;28;20037;-59
2024/02/20 03:46:31;;;;;;;5.70;5.00;;;;;;;;;;10330796;28;20026;-59
2024/02/20 03:51:32;;;;;;;6.97;5.28;;;;;;;;;;10330246;28;20030;-59
2024/02/20 03:56:32;;;;;;;6.25;5.00;;;;;;;;;;10329507;28;20027;-60
2024/02/20 04:01:33;;;;;;;5.50;5.00;;;;;;;;;;10329590;28;20025;-60
2024/02/20 04:06:33;;;;;;;7.07;5.30;;;;;;;;;;10329436;28;20310;-60
2024/02/20 04:11:34;;;;;;;6.20;4.85;;;;;;;;;;10329472;28;20030;-59
2024/02/20 04:16:35;;;;;;;6.65;5.03;;;;;;;;;;10329123;28;20030;-58
2024/02/20 04:21:35;;;;;;;8.02;5.30;;;;;;;;;;10328960;28;20022;-59
2024/02/20 04:26:36;;;;;;;6.43;4.80;;;;;;;;;;10328537;28;20354;-59
2024/02/20 04:31:37;;;;;;;5.22;4.72;;;;;;;;;;10327840;28;20030;-61
2024/02/20 04:36:37;;;;;;;5.60;4.85;;;;;;;;;;10328120;28;20474;-61
2024/02/20 04:41:38;;;;;;;7.22;5.60;;;;;;;;;;10327937;28;20481;-61
2024/02/20 04:46:38;;;;;;;8.05;5.55;;;;;;;;;;10328024;28;20030;-61
2024/02/20 04:51:39;;;;;;;6.15;4.85;;;;;;;;;;10327678;28;20026;-61
2024/02/20 04:56:40;;;;;;;5.22;4.72;;;;;;;;;;10327471;28;20072;-61
2024/02/20 05:01:40;;;;;;;4.85;4.40;;;;;;;;;;10327377;28;20026;-59
2024/02/20 05:06:41;;;;;;;6.20;4.80;;;;;;;;;;10326854;28;20064;-59
2024/02/20 05:12:02;;;;;;;6.80;5.30;;;;;;;;;;10326943;28;20085;-58
2024/02/20 05:17:02;;;;;;;6.95;5.05;;;;;;;;;;10320522;28;20409;-60
2024/02/20 05:22:03;;;;;;;7.10;5.07;;;;;;;;;;10320898;28;20050;-60
2024/02/20 05:27:04;;;;;;;6.03;5.07;;;;;;;;;;10320412;28;20065;-59
2024/02/20 05:32:05;;;;;;;5.95;4.43;;;;;;;;;;10320337;28;20073;-59
2024/02/20 05:37:05;;;;;;;7.40;5.00;;;;;;;;;;10320127;28;20038;-59
2024/02/20 05:42:07;;;;;;;5.80;4.50;;;;;;;;;;10319678;28;20042;-59
2024/02/20 05:47:07;;;;;;;6.55;4.43;;;;;;;;;;10319550;28;20046;-59
2024/02/20 05:52:10;;;;;;;6.78;4.82;;;;;;;;;;10321821;28;20049;-59
2024/02/20 05:57:10;;;;;;;6.05;4.70;;;;;;;;;;10327234;28;20065;-59
2024/02/20 06:02:11;;;;;;;4.82;4.10;;;;;;;;;;10326145;28;20394;-58
2024/02/20 06:07:12;;;;;;;4.78;4.38;;;;;;;;;;10325563;28;20398;-59
2024/02/20 06:12:12;;;;;;;4.95;4.28;;;;;;;;;;10325876;28;20054;-59
2024/02/20 06:17:13;;;;;;;5.65;4.97;;;;;;;;;;10325314;28;20102;-58
2024/02/20 06:22:13;;;;;;;5.90;4.45;;;;;;;;;;10325137;28;20069;-58
2024/02/20 06:27:14;;;;;;;5.82;4.63;;;;;;;;;;10325314;28;20030;-59
2024/02/20 06:32:15;;;;;;;7.20;4.65;;;;;;;;;;10325263;28;20106;-59
2024/02/20 06:37:15;;;;;;;5.20;4.47;;;;;;;;;;10325100;28;20027;-59
2024/02/20 06:42:17;;;;;;;5.63;5.05;;;;;;;;;;10324965;28;20031;-59
2024/02/20 06:47:18;;;;;;;6.22;4.65;;;;;;;;;;10325444;28;20037;-59
2024/02/20 06:52:19;;;;;;;6.00;5.40;;;;;;;;;;10324596;28;20129;-60
2024/02/20 06:57:19;;;;;;;8.63;6.30;;;;;;;;;;10331877;28;20160;-59
2024/02/20 07:02:20;;;;;;;14.02;6.28;;;;;;;;;;10331826;28;20026;-61
2024/02/20 07:07:21;;;;;;;7.72;5.68;;;;;;;;;;10330934;28;20038;-59
2024/02/20 07:12:24;;;;;;;11.98;6.43;;;;;;;;;;10329214;28;20026;-66
2024/02/20 07:17:26;;;;;;;26.83;7.43;;;;;;;;;;10330110;28;20041;-65
2024/02/20 07:22:28;;;;;;;10.60;7.20;;;;;;;;;;10328512;28;20169;-64
2024/02/20 07:27:29;;;;;;;8.98;7.00;;;;;;;;;;10329439;28;20561;-64
2024/02/20 07:32:30;;;;;;;18.55;8.40;;;;;;;;;;10329493;28;20105;-65
2024/02/20 07:37:30;;;;;;;18.90;8.43;;;;;;;;;;10331449;28;20482;-65
2024/02/20 07:42:31;;;;;;;15.43;8.32;;;;;;;;;;10330662;28;20512;-64
2024/02/20 07:47:31;;;;;;;10.35;8.00;;;;;;;;;;10330481;28;20037;-63
2024/02/20 07:52:32;;;;;;;11.98;8.10;;;;;;;;;;10330174;28;20038;-63
2024/02/20 07:57:33;;;;;;;11.80;8.52;;;;;;;;;;10330919;28;20057;-66
2024/02/20 08:02:33;;;;;;;15.07;8.35;;;;;;;;;;10329957;28;20037;-66
2024/02/20 08:07:34;;;;;;;10.77;7.93;;;;;;;;;;10329274;28;20050;-66
2024/02/20 08:12:35;;;;;;;12.80;8.43;;;;;;;;;;10329646;28;20465;-66
2024/02/20 08:17:36;;;;;;;11.25;8.45;;;;;;;;;;10329507;28;20022;-66
2024/02/20 08:22:36;;;;;;;10.98;8.82;;;;;;;;;;10329535;28;20023;-66
2024/02/20 08:27:37;;;;;;;11.70;7.78;;;;;;;;;;10328937;28;20466;-66
2024/02/20 08:32:43;;;;;;;10.95;8.70;;;;;;;;;;10328444;28;20026;-64
2024/02/20 08:37:44;;;;;;;9.52;7.82;;;;;;;;;;10328788;28;20031;-64
2024/02/20 08:42:45;;;;;;;10.43;7.68;;;;;;;;;;10327920;28;20505;-63
2024/02/20 08:47:45;;;;;;;12.13;8.48;;;;;;;;;;10327774;28;20030;-64
2024/02/20 08:52:46;;;;;;;12.80;8.80;;;;;;;;;;10327918;28;20030;-64
2024/02/20 08:57:46;;;;;;;12.18;8.65;;;;;;;;;;10328477;28;20026;-63
2024/02/20 09:02:47;;;;;;;16.45;8.65;;;;;;;;;;10327943;28;20026;-64
2024/02/20 09:07:47;;;;;;;9.68;8.13;;;;;;;;;;10328080;28;20054;-62
2024/02/20 09:12:48;;;;;;;10.10;7.63;;;;;;;;;;10327097;28;20104;-61
2024/02/20 09:17:49;;;;;;;10.70;8.13;;;;;;;;;;10326499;28;20058;-64
2024/02/20 09:22:50;;;;;;;10.02;8.10;;;;;;;;;;10327102;28;20110;-62
2024/02/20 09:27:50;;;;;;;11.02;8.52;;;;;;;;;;10327196;28;20038;-62
2024/02/20 09:32:51;;;;;;;10.35;7.90;;;;;;;;;;10326731;28;20034;-63
2024/02/20 09:37:52;;;;;;;10.35;8.00;;;;;;;;;;10326937;28;20030;-65
2024/02/20 09:43:00;;;;;;;10.45;7.55;;;;;;;;;;10326852;28;20026;-64
2024/02/20 09:48:01;;;;;;;9.80;7.47;;;;;;;;;;10326275;28;20493;-64
2024/02/20 09:53:01;;;;;;;9.77;7.80;;;;;;;;;;10326149;28;20062;-64
2024/02/20 09:58:02;;;;;;;10.10;7.68;;;;;;;;;;10326580;28;20038;-64
2024/02/20 10:03:04;;;;;;;15.18;8.00;;;;;;;;;;10324547;28;20126;-64
2024/02/20 10:08:05;;;;;;;11.20;7.43;;;;;;;;;;10325145;28;20041;-64
2024/02/20 10:13:06;;;;;;;11.65;7.47;;;;;;;;;;10325501;28;20092;-64
2024/02/20 10:18:07;;;;;;;10.27;7.88;;;;;;;;;;10325649;28;20197;-64
2024/02/20 10:23:09;;;;;;;10.02;7.85;;;;;;;;;;10325278;28;20488;-64
2024/02/20 10:28:11;;;;;;;13.50;8.43;;;;;;;;;;10326673;28;20198;-63
2024/02/20 10:33:11;;;;;;;13.27;7.57;;;;;;;;;;10333322;28;20473;-61
2024/02/20 10:38:18;;;;;;;15.20;8.30;;;;;;;;;;10333394;28;20023;-62
2024/02/20 10:43:19;;;;;;;11.98;8.30;;;;;;;;;;10333519;28;20026;-61
2024/02/20 10:48:29;;;;;;;11.55;8.13;;;;;;;;;;10331623;28;20112;-61
2024/02/20 10:53:30;;;;;;;12.45;7.72;;;;;;;;;;10331646;28;20109;-61
2024/02/20 10:58:31;;;;;;;13.38;8.43;;;;;;;;;;10331534;28;20034;-62
2024/02/20 11:03:32;;;;;;;10.13;7.43;;;;;;;;;;10330595;28;20133;-62
2024/02/20 11:08:33;;;;;;;8.68;7.47;;;;;;;;;;10331731;28;20030;-61
2024/02/20 11:13:33;;;;;;;9.73;7.10;;;;;;;;;;10331086;28;20026;-62
2024/02/20 11:18:34;;;;;;;8.55;7.15;;;;;;;;;;10332236;28;20027;-62
2024/02/20 11:23:37;;;;;;;12.05;7.10;;;;;;;;;;10331473;28;20023;-62
2024/02/20 11:28:38;;;;;;;9.88;6.85;;;;;;;;;;10331630;28;20034;-62
2024/02/20 11:33:39;;;;;;;10.00;7.47;;;;;;;;;;10331309;28;20034;-61
2024/02/20 11:38:39;;;;;;;10.43;7.60;;;;;;;;;;10330002;28;20041;-63
2024/02/20 11:43:41;;;;;;;9.80;7.60;;;;;;;;;;10330983;28;20030;-62
2024/02/20 11:48:46;;;;;;;8.98;7.50;;;;;;;;;;10330597;28;20109;-62
2024/02/20 11:53:48;;;;;;;9.13;7.03;;;;;;;;;;10330336;28;20116;-62
2024/02/20 11:58:55;;;;;;;9.23;6.68;;;;;;;;;;10330556;28;20159;-61
2024/02/20 12:03:56;;;;;;;10.43;6.75;;;;;;;;;;10328218;28;20504;-61
2024/02/20 12:08:57;;;;;;;11.00;6.93;;;;;;;;;;10329927;28;20050;-62
2024/02/20 12:13:59;;;;;;;9.93;6.68;;;;;;;;;;10329528;28;20034;-61
2024/02/20 12:19:00;;;;;;;11.63;6.82;;;;;;;;;;10329109;28;20114;-61
2024/02/20 12:24:07;;;;;;;8.35;6.88;;;;;;;;;;10328787;28;20370;-62
2024/02/20 12:29:07;;;;;;;8.73;6.50;;;;;;;;;;10328868;28;20038;-61
2024/02/20 12:34:08;;;;;;;7.97;6.60;;;;;;;;;;10329171;28;20038;-61
2024/02/20 12:39:08;;;;;;;9.60;6.57;;;;;;;;;;10328387;28;20052;-61
2024/02/20 12:44:09;;;;;;;8.35;6.40;;;;;;;;;;10327658;28;20030;-61
2024/02/20 12:49:10;;;;;;;9.93;6.55;;;;;;;;;;10328282;28;20088;-62
2024/02/20 12:54:10;;;;;;;11.45;7.00;;;;;;;;;;10326875;28;20100;-61
2024/02/20 12:59:12;;;;;;;9.20;6.40;;;;;;;;;;10327932;28;20082;-61
2024/02/20 13:04:13;;;;;;;8.35;6.40;;;;;;;;;;10326036;28;20039;-62
2024/02/20 13:09:16;;;;;;;12.90;6.97;;;;;;;;;;10327743;28;20198;-62
2024/02/20 13:14:16;;;;;;;8.15;6.35;;;;;;;;;;10327056;28;20277;-62
2024/02/20 13:19:17;;;;;;;9.05;6.53;;;;;;;;;;10327523;28;20281;-62
2024/02/20 13:24:18;;;;;;;8.30;7.05;;;;;;;;;;10327079;28;20018;-62
2024/02/20 13:29:18;;;;;;;10.43;6.75;;;;;;;;;;10326904;28;20026;-62
2024/02/20 13:34:19;;;;;;;9.38;6.82;;;;;;;;;;10326091;28;20030;-61
2024/02/20 13:39:19;;;;;;;7.70;5.97;;;;;;;;;;10325991;28;20308;-61
2024/02/20 13:44:20;;;;;;;8.38;5.72;;;;;;;;;;10325983;28;20103;-61
2024/02/20 13:49:23;;;;;;;7.30;6.30;;;;;;;;;;10326959;28;20034;-62
2024/02/20 13:54:27;;;;;;;8.93;6.55;;;;;;;;;;10326533;28;20029;-61
2024/02/20 13:59:27;;;;;;;9.70;6.18;;;;;;;;;;10326557;28;20034;-61
2024/02/20 14:04:28;;;;;;;7.60;6.22;;;;;;;;;;10331020;28;20050;-61
2024/02/20 14:09:29;;;;;;;8.50;6.05;;;;;;;;;;10334276;28;20038;-62
2024/02/20 14:14:29;;;;;;;8.30;6.32;;;;;;;;;;10334308;28;20385;-62
2024/02/20 14:19:30;;;;;;;7.07;5.95;;;;;;;;;;10333693;28;20105;-61
2024/02/20 14:24:31;;;;;;;9.60;6.70;;;;;;;;;;10334074;28;20619;-61
2024/02/20 14:29:32;;;;;;;8.88;6.57;;;;;;;;;;10332641;28;20030;-61
2024/02/20 14:34:33;;;;;;;6.93;6.05;;;;;;;;;;10332865;28;20065;-62
2024/02/20 14:39:34;;;;;;;9.55;6.65;;;;;;;;;;10333601;28;20054;-62
2024/02/20 14:44:35;;;;;;;13.15;6.97;;;;;;;;;;10333327;28;20031;-62
2024/02/20 14:49:36;;;;;;;10.02;6.80;;;;;;;;;;10332241;28;20018;-62
2024/02/20 14:54:36;;;;;;;7.57;6.45;;;;;;;;;;10332468;28;20042;-62
2024/02/20 14:59:37;;;;;;;8.85;6.20;;;;;;;;;;10332966;28;20037;-61
2024/02/20 15:04:41;;;;;;;8.77;6.03;;;;;;;;;;10332723;28;20182;-62
2024/02/20 15:09:42;;;;;;;9.65;6.57;;;;;;;;;;10332147;28;20122;-62
2024/02/20 15:14:49;;;;;;;9.65;6.38;;;;;;;;;;10331085;28;20471;-61
2024/02/20 15:19:50;;;;;;;7.43;5.68;;;;;;;;;;10332812;28;20050;-62
2024/02/20 15:24:51;;;;;;;7.57;6.18;;;;;;;;;;10332338;28;20029;-64
2024/02/20 15:29:53;;;;;;;7.47;5.95;;;;;;;;;;10332054;28;20042;-61
2024/02/20 15:34:54;;;;;;;8.15;6.07;;;;;;;;;;10331251;28;20030;-63
2024/02/20 15:39:54;;;;;;;8.13;6.03;;;;;;;;;;10331172;28;20026;-62
2024/02/20 15:44:55;;;;;;;7.75;5.90;;;;;;;;;;10329876;28;20022;-63
2024/02/20 15:49:56;;;;;;;9.70;6.20;;;;;;;;;;10330858;28;20018;-63
2024/02/20 15:54:57;;;;;;;9.32;6.30;;;;;;;;;;10330025;28;20034;-63
2024/02/20 15:59:57;;;;;;;6.28;5.65;;;;;;;;;;10330521;28;20041;-62
2024/02/20 16:04:58;;;;;;;9.07;5.95;;;;;;;;;;10329629;28;20062;-62
2024/02/20 16:09:59;;;;;;;7.53;5.97;;;;;;;;;;10329820;28;20045;-63
2024/02/20 16:14:59;;;;;;;7.78;6.05;;;;;;;;;;10330221;28;20026;-61
2024/02/20 16:20:00;;;;;;;7.13;6.10;;;;;;;;;;10329227;28;20040;-61
2024/02/20 16:25:06;;;;;;;7.43;5.70;;;;;;;;;;10329114;28;20029;-64
2024/02/20 16:30:08;;;;;;;8.38;5.53;;;;;;;;;;10329299;28;20413;-62
2024/02/20 16:35:12;;;;;;;7.93;5.80;;;;;;;;;;10328734;28;20026;-62
2024/02/20 16:40:13;;;;;;;7.80;6.00;;;;;;;;;;10328756;28;20507;-61
2024/02/20 16:45:13;;;;;;;6.88;5.65;;;;;;;;;;10329055;28;20089;-61
2024/02/20 16:50:14;;;;;;;7.25;5.38;;;;;;;;;;10328255;28;20398;-62
2024/02/20 16:55:15;;;;;;;7.00;5.40;;;;;;;;;;10327909;28;20497;-62
2024/02/20 17:00:17;;;;;;;7.78;5.35;;;;;;;;;;10328701;28;20105;-62
2024/02/20 17:05:19;;;;;;;7.93;5.78;;;;;;;;;;10342779;23;20494;-64
2024/02/20 17:10:20;;;;;;;6.80;5.40;;;;;;;;;;10332935;28;20101;-63
2024/02/20 17:15:21;;;;;;;6.93;5.63;;;;;;;;;;10328992;28;20035;-63
2024/02/20 17:20:21;;;;;;;7.38;5.55;;;;;;;;;;10326772;28;20022;-61
2024/02/20 17:25:24;;;;;;;8.98;5.40;;;;;;;;;;10326999;28;20406;-63
2024/02/20 17:30:25;;;;;;;8.40;5.32;;;;;;;;;;10327436;28;20026;-63
2024/02/20 17:35:25;;;;;;;5.47;4.97;;;;;;;;;;10326817;28;20476;-64
2024/02/20 17:40:26;;;;;;;7.10;4.93;;;;;;;;;;10326109;28;20037;-62
2024/02/20 17:45:26;;;;;;;7.47;5.40;;;;;;;;;;10326195;28;20057;-63
2024/02/20 17:50:28;;;;;;;8.77;5.22;;;;;;;;;;10326393;28;20034;-62
2024/02/20 17:55:29;;;;;;;8.07;5.15;;;;;;;;;;10326158;28;20449;-62
2024/02/20 18:00:30;;;;;;;6.30;4.40;;;;;;;;;;10326784;28;20027;-63
2024/02/20 18:05:31;;;;;;;6.25;5.22;;;;;;;;;;10325846;28;20153;-62
2024/02/20 18:10:31;;;;;;;7.50;5.50;;;;;;;;;;10326095;28;20022;-63
2024/02/20 18:15:34;;;;;;;7.13;5.03;;;;;;;;;;10326145;28;20030;-61
2024/02/20 18:20:36;;;;;;;10.48;5.63;;;;;;;;;;10325845;28;20454;-62
2024/02/20 18:25:37;;;;;;;6.13;5.40;;;;;;;;;;10325898;28;20033;-61
2024/02/20 18:30:38;;;;;;;5.95;4.88;;;;;;;;;;10325095;28;20026;-62
2024/02/20 18:35:38;;;;;;;10.38;5.25;;;;;;;;;;10325120;28;20034;-61
2024/02/20 18:40:39;;;;;;;7.15;5.18;;;;;;;;;;10324904;28;20031;-62
2024/02/20 18:45:40;;;;;;;6.15;5.18;;;;;;;;;;10325381;28;20030;-60
2024/02/20 18:50:41;;;;;;;8.38;5.13;;;;;;;;;;10329582;28;20030;-61
2024/02/20 18:55:41;;;;;;;6.38;5.28;;;;;;;;;;10332575;28;20026;-61
2024/02/20 19:00:42;;;;;;;6.32;4.93;;;;;;;;;;10332555;28;20037;-62
2024/02/20 19:05:42;;;;;;;5.25;4.53;;;;;;;;;;10332076;28;20054;-62
2024/02/20 19:10:43;;;;;;;7.75;5.40;;;;;;;;;;10332002;28;20077;-64
2024/02/20 19:15:43;;;;;;;9.13;5.47;;;;;;;;;;10331482;28;20031;-62
2024/02/20 19:20:44;;;;;;;8.88;4.95;;;;;;;;;;10331517;28;20026;-61
2024/02/20 19:25:45;;;;;;;8.15;5.35;;;;;;;;;;10331782;28;20041;-62
2024/02/20 19:30:45;;;;;;;6.35;5.53;;;;;;;;;;10331857;28;20041;-61
2024/02/20 19:35:47;;;;;;;10.13;5.75;;;;;;;;;;10331145;28;20023;-62
2024/02/20 19:40:49;;;;;;;6.70;5.43;;;;;;;;;;10331385;28;20030;-62
2024/02/20 19:45:49;;;;;;;9.27;5.40;;;;;;;;;;10329992;28;20030;-61
2024/02/20 19:50:50;;;;;;;7.90;5.82;;;;;;;;;;10330082;28;20026;-61
2024/02/20 19:55:50;;;;;;;8.50;5.63;;;;;;;;;;10330675;28;20023;-60
2024/02/20 20:00:51;;;;;;;8.90;5.95;;;;;;;;;;10330138;28;20137;-61
2024/02/20 20:05:52;;;;;;;6.20;5.13;;;;;;;;;;10329367;28;20046;-61
2024/02/20 20:10:52;;;;;;;10.18;5.55;;;;;;;;;;10329425;28;20035;-61
2024/02/20 20:15:53;;;;;;;9.05;5.68;;;;;;;;;;10329440;28;20505;-61
2024/02/20 20:20:53;;;;;;;6.97;5.20;;;;;;;;;;10329966;28;20221;-61
2024/02/20 20:25:55;;;;;;;11.27;5.10;;;;;;;;;;10329097;28;20034;-61
2024/02/20 20:30:55;;;;;;;5.93;4.85;;;;;;;;;;10329367;28;20034;-61
2024/02/20 20:35:56;;;;;;;6.53;5.20;;;;;;;;;;10328855;28;20018;-61
2024/02/20 20:40:56;;;;;;;8.15;5.10;;;;;;;;;;10328803;28;20108;-62
2024/02/20 20:45:57;;;;;;;7.88;4.85;;;;;;;;;;10328433;28;20027;-59
2024/02/20 20:50:58;;;;;;;6.25;5.20;;;;;;;;;;10329552;28;20041;-57
2024/02/20 20:55:59;;;;;;;5.80;5.20;;;;;;;;;;10327925;28;20027;-58
2024/02/20 21:00:59;;;;;;;6.97;4.78;;;;;;;;;;10328268;28;20022;-58
2024/02/20 21:06:00;;;;;;;8.40;5.45;;;;;;;;;;10327432;28;20046;-62
2024/02/20 21:11:01;;;;;;;6.43;4.78;;;;;;;;;;10327749;28;20030;-58
2024/02/20 21:16:01;;;;;;;6.50;5.07;;;;;;;;;;10326684;28;20034;-57
2024/02/20 21:21:06;;;;;;;6.72;4.88;;;;;;;;;;10327046;28;20101;-59
2024/02/20 21:26:07;;;;;;;5.25;4.75;;;;;;;;;;10327404;28;20041;-58
2024/02/20 21:31:08;;;;;;;6.45;4.90;;;;;;;;;;10326674;28;20033;-58
2024/02/20 21:36:08;;;;;;;6.32;4.70;;;;;;;;;;10327135;28;20114;-57
2024/02/20 21:41:10;;;;;;;6.47;5.00;;;;;;;;;;10326532;28;20022;-57
2024/02/20 21:46:19;;;;;;;5.18;4.68;;;;;;;;;;10326345;28;20455;-58
2024/02/20 21:51:20;;;;;;;5.22;4.60;;;;;;;;;;10325748;28;20039;-61
2024/02/20 21:56:21;;;;;;;8.35;5.15;;;;;;;;;;10325950;28;20030;-61
2024/02/20 22:01:22;;;;;;;8.88;6.03;;;;;;;;;;10325924;28;20402;-57
2024/02/20 22:06:22;;;;;;;11.25;5.82;;;;;;;;;;10325391;28;20046;-58
2024/02/20 22:11:23;;;;;;;7.80;7.00;;;;;;;;;;10326270;28;20046;-58
2024/02/20 22:16:23;;;;;;;7.90;6.80;;;;;;;;;;10325421;28;20030;-58
2024/02/20 22:21:24;;;;;;;8.88;7.07;;;;;;;;;;10326081;28;20022;-58
2024/02/20 22:26:24;;;;;;;10.15;7.05;;;;;;;;;;10332597;28;20030;-59
2024/02/20 22:31:25;;;;;;;9.05;7.47;;;;;;;;;;10333473;28;20022;-61
2024/02/20 22:36:26;;;;;;;11.80;7.47;;;;;;;;;;10333317;28;20486;-62
2024/02/20 22:41:27;;;;;;;10.32;7.22;;;;;;;;;;10333434;28;20402;-62
2024/02/20 22:46:28;;;;;;;11.82;8.27;;;;;;;;;;10333098;28;20026;-61
2024/02/20 22:51:28;;;;;;;11.77;7.68;;;;;;;;;;10331322;28;20030;-61
2024/02/20 22:56:30;;;;;;;13.18;7.38;;;;;;;;;;10332888;28;20038;-62
2024/02/20 23:01:33;;;;;;;11.43;7.15;;;;;;;;;;10331706;28;20106;-62
2024/02/20 23:06:33;;;;;;;13.15;7.72;;;;;;;;;;10331747;28;20112;-62
2024/02/20 23:11:34;;;;;;;10.65;7.45;;;;;;;;;;10332717;28;20105;-61
2024/02/20 23:16:35;;;;;;;12.32;7.55;;;;;;;;;;10332362;28;20027;-61
2024/02/20 23:21:36;;;;;;;9.93;7.35;;;;;;;;;;10331776;28;20029;-59
2024/02/20 23:26:37;;;;;;;11.13;8.13;;;;;;;;;;10331604;28;20031;-57
2024/02/20 23:31:37;;;;;;;12.50;9.10;;;;;;;;;;10331315;28;20406;-57
2024/02/20 23:36:40;;;;;;;10.93;7.53;;;;;;;;;;10330973;28;20107;-59
2024/02/20 23:41:41;;;;;;;10.65;7.82;;;;;;;;;;10330363;28;20117;-57
2024/02/20 23:46:41;;;;;;;11.57;7.82;;;;;;;;;;10330888;28;20525;-58
2024/02/20 23:51:42;;;;;;;12.18;7.80;;;;;;;;;;10331434;28;20038;-56
2024/02/20 23:56:43;;;;;;;9.05;7.15;;;;;;;;;;10330055;28;20477;-59
